EZY441R LFPG-EGKK
Flight info
| Callsign | EZY441R |
|---|---|
| Flight time | 0h 43m |
| Altitude | 24000 |
| Route | OPALE DCT KESAX DCT KUNAV |
| Aircraft | A20N/M-SDE2E3FGHIRWXY/LB1 |
Departure
| Time | 2026-05-08 13:55 |
|---|---|
| Airport | Charles de Gaulle International Airport (LFPG) |
Arrival
| Time | 2026-05-08 14:39 |
|---|---|
| Airport | London Gatwick Airport (EGKK) |
| Time | Latitude | Longitude | Altitude | Speed | Heading |
|---|---|---|---|---|---|
| 2026-05-08 13:21 | 49.00555 | 2.56805 | 357 ft | 0 kts | 167° |
| 2026-05-08 13:45 | 49.00560 | 2.56803 | 363 ft | 4 kts | 169° |
| 2026-05-08 13:45 | 49.00587 | 2.56799 | 359 ft | 4 kts | 185° |
| 2026-05-08 13:45 | 49.00612 | 2.56808 | 362 ft | 4 kts | 212° |
| 2026-05-08 13:45 | 49.00629 | 2.56835 | 359 ft | 3 kts | 258° |
| 2026-05-08 13:46 | 49.00630 | 2.56842 | 359 ft | 0 kts | 263° |
| 2026-05-08 13:49 | 49.00628 | 2.56826 | 363 ft | 6 kts | 263° |
| 2026-05-08 13:49 | 49.00622 | 2.56695 | 361 ft | 17 kts | 267° |
| 2026-05-08 13:50 | 49.00612 | 2.56517 | 357 ft | 17 kts | 265° |
| 2026-05-08 13:50 | 49.00603 | 2.56341 | 357 ft | 17 kts | 265° |
| 2026-05-08 13:50 | 49.00592 | 2.56165 | 365 ft | 17 kts | 264° |
| 2026-05-08 13:50 | 49.00571 | 2.55993 | 357 ft | 16 kts | 269° |
| 2026-05-08 13:51 | 49.00567 | 2.55823 | 362 ft | 16 kts | 266° |
| 2026-05-08 13:51 | 49.00558 | 2.55656 | 357 ft | 16 kts | 265° |
| 2026-05-08 13:51 | 49.00549 | 2.55491 | 359 ft | 16 kts | 265° |
| 2026-05-08 13:51 | 49.00507 | 2.55352 | 366 ft | 14 kts | 215° |
| 2026-05-08 13:52 | 49.00412 | 2.55342 | 357 ft | 13 kts | 160° |
| 2026-05-08 13:52 | 49.00313 | 2.55389 | 364 ft | 16 kts | 163° |
| 2026-05-08 13:52 | 49.00207 | 2.55433 | 360 ft | 16 kts | 166° |
| 2026-05-08 13:52 | 49.00103 | 2.55478 | 362 ft | 15 kts | 162° |
| 2026-05-08 13:53 | 49.00001 | 2.55521 | 359 ft | 15 kts | 164° |
| 2026-05-08 13:53 | 48.99903 | 2.55579 | 360 ft | 15 kts | 145° |
| 2026-05-08 13:53 | 48.99841 | 2.55703 | 357 ft | 15 kts | 110° |
| 2026-05-08 13:53 | 48.99774 | 2.55804 | 364 ft | 15 kts | 181° |
| 2026-05-08 13:54 | 48.99683 | 2.55817 | 363 ft | 13 kts | 175° |
| 2026-05-08 13:54 | 48.99605 | 2.55847 | 358 ft | 7 kts | 121° |
| 2026-05-08 13:54 | 48.99602 | 2.55884 | 356 ft | 0 kts | 86° |
| 2026-05-08 13:54 | 48.99603 | 2.55888 | 356 ft | 1 kts | 86° |
| 2026-05-08 13:55 | 48.99603 | 2.55899 | 357 ft | 4 kts | 86° |
| 2026-05-08 13:55 | 48.99623 | 2.56267 | 363 ft | 74 kts | 85° |
| 2026-05-08 13:55 | 48.99797 | 2.59306 | 993 ft | 181 kts | 84° |
| 2026-05-08 13:56 | 48.99908 | 2.61265 | 1836 ft | 195 kts | 85° |
| 2026-05-08 13:56 | 49.00012 | 2.63371 | 2716 ft | 205 kts | 85° |
| 2026-05-08 13:56 | 49.00110 | 2.65644 | 3498 ft | 227 kts | 86° |
| 2026-05-08 13:56 | 49.00240 | 2.68175 | 4253 ft | 249 kts | 85° |
| 2026-05-08 13:57 | 49.00385 | 2.70859 | 5230 ft | 258 kts | 85° |
| 2026-05-08 13:57 | 49.00533 | 2.73616 | 6222 ft | 265 kts | 85° |
| 2026-05-08 13:57 | 49.00675 | 2.76440 | 7177 ft | 270 kts | 87° |
| 2026-05-08 13:57 | 49.00595 | 2.79335 | 8084 ft | 277 kts | 97° |
| 2026-05-08 13:58 | 49.00319 | 2.82273 | 9031 ft | 284 kts | 100° |
| 2026-05-08 13:58 | 48.99996 | 2.85267 | 10018 ft | 289 kts | 101° |
| 2026-05-08 13:58 | 48.99660 | 2.88354 | 10656 ft | 306 kts | 101° |
| 2026-05-08 13:58 | 48.99300 | 2.91652 | 11206 ft | 324 kts | 101° |
| 2026-05-08 13:59 | 48.98922 | 2.95041 | 11989 ft | 333 kts | 103° |
| 2026-05-08 13:59 | 48.98544 | 2.98548 | 12890 ft | 340 kts | 92° |
| 2026-05-08 13:59 | 48.98920 | 3.02121 | 13814 ft | 348 kts | 70° |
| 2026-05-08 13:59 | 49.00145 | 3.05315 | 14609 ft | 354 kts | 50° |
| 2026-05-08 14:00 | 49.01866 | 3.08029 | 15433 ft | 359 kts | 39° |
| 2026-05-08 14:00 | 49.03971 | 3.10080 | 16231 ft | 363 kts | 23° |
| 2026-05-08 14:00 | 49.06446 | 3.11000 | 16768 ft | 373 kts | 0° |
| 2026-05-08 14:00 | 49.09005 | 3.10363 | 17441 ft | 375 kts | 337° |
| 2026-05-08 14:01 | 49.11281 | 3.08427 | 18208 ft | 376 kts | 322° |
| 2026-05-08 14:01 | 49.13278 | 3.05835 | 18890 ft | 379 kts | 314° |
| 2026-05-08 14:01 | 49.15125 | 3.02946 | 19562 ft | 382 kts | 311° |
| 2026-05-08 14:01 | 49.16909 | 2.99985 | 20237 ft | 386 kts | 310° |
| 2026-05-08 14:02 | 49.18740 | 2.96959 | 20918 ft | 390 kts | 311° |
| 2026-05-08 14:02 | 49.20623 | 2.93939 | 21604 ft | 394 kts | 312° |
| 2026-05-08 14:02 | 49.22550 | 2.90943 | 22257 ft | 398 kts | 313° |
| 2026-05-08 14:02 | 49.24519 | 2.87952 | 22907 ft | 401 kts | 313° |
| 2026-05-08 14:03 | 49.26525 | 2.84948 | 23548 ft | 405 kts | 314° |
| 2026-05-08 14:03 | 49.28552 | 2.81931 | 23928 ft | 408 kts | 314° |
| 2026-05-08 14:03 | 49.30591 | 2.78902 | 24032 ft | 407 kts | 314° |
| 2026-05-08 14:03 | 49.32621 | 2.75879 | 24045 ft | 406 kts | 314° |
| 2026-05-08 14:04 | 49.34618 | 2.72899 | 24042 ft | 406 kts | 314° |
| 2026-05-08 14:04 | 49.36642 | 2.69870 | 24036 ft | 406 kts | 314° |
| 2026-05-08 14:04 | 49.38661 | 2.66842 | 24047 ft | 406 kts | 314° |
| 2026-05-08 14:04 | 49.40683 | 2.63804 | 24046 ft | 406 kts | 314° |
| 2026-05-08 14:05 | 49.42701 | 2.60766 | 24050 ft | 406 kts | 314° |
| 2026-05-08 14:05 | 49.44720 | 2.57722 | 24051 ft | 407 kts | 314° |
| 2026-05-08 14:05 | 49.46736 | 2.54679 | 24049 ft | 407 kts | 314° |
| 2026-05-08 14:05 | 49.48756 | 2.51627 | 24053 ft | 407 kts | 314° |
| 2026-05-08 14:06 | 49.50772 | 2.48578 | 24046 ft | 407 kts | 314° |
| 2026-05-08 14:06 | 49.52765 | 2.45560 | 24051 ft | 407 kts | 314° |
| 2026-05-08 14:06 | 49.54780 | 2.42504 | 24050 ft | 407 kts | 314° |
| 2026-05-08 14:06 | 49.56798 | 2.39440 | 24054 ft | 407 kts | 314° |
| 2026-05-08 14:07 | 49.58815 | 2.36375 | 24051 ft | 407 kts | 314° |
| 2026-05-08 14:07 | 49.60829 | 2.33310 | 24057 ft | 407 kts | 314° |
| 2026-05-08 14:07 | 49.62839 | 2.30249 | 24056 ft | 406 kts | 314° |
| 2026-05-08 14:07 | 49.64851 | 2.27178 | 24057 ft | 406 kts | 314° |
| 2026-05-08 14:08 | 49.66856 | 2.24117 | 24055 ft | 406 kts | 314° |
| 2026-05-08 14:08 | 49.68861 | 2.21051 | 24056 ft | 406 kts | 314° |
| 2026-05-08 14:08 | 49.70847 | 2.18011 | 24061 ft | 405 kts | 314° |
| 2026-05-08 14:08 | 49.72851 | 2.14939 | 24057 ft | 405 kts | 314° |
| 2026-05-08 14:09 | 49.74847 | 2.11875 | 24060 ft | 405 kts | 314° |
| 2026-05-08 14:09 | 49.76844 | 2.08805 | 24064 ft | 405 kts | 314° |
| 2026-05-08 14:09 | 49.78837 | 2.05738 | 24058 ft | 404 kts | 314° |
| 2026-05-08 14:09 | 49.80830 | 2.02668 | 24060 ft | 404 kts | 314° |
| 2026-05-08 14:10 | 49.82821 | 1.99596 | 24066 ft | 404 kts | 314° |
| 2026-05-08 14:10 | 49.84782 | 1.96568 | 24060 ft | 404 kts | 314° |
| 2026-05-08 14:10 | 49.86768 | 1.93498 | 24058 ft | 404 kts | 314° |
| 2026-05-08 14:10 | 49.88759 | 1.90421 | 24066 ft | 404 kts | 315° |
| 2026-05-08 14:11 | 49.90866 | 1.87549 | 24064 ft | 404 kts | 319° |
| 2026-05-08 14:11 | 49.93028 | 1.84767 | 24061 ft | 404 kts | 320° |
| 2026-05-08 14:11 | 49.95212 | 1.82031 | 24062 ft | 404 kts | 321° |
| 2026-05-08 14:11 | 49.97412 | 1.79316 | 24063 ft | 404 kts | 321° |
| 2026-05-08 14:12 | 49.99588 | 1.76645 | 24064 ft | 404 kts | 321° |
| 2026-05-08 14:12 | 50.01791 | 1.73941 | 24064 ft | 404 kts | 321° |
| 2026-05-08 14:12 | 50.03991 | 1.71235 | 24062 ft | 404 kts | 321° |
| 2026-05-08 14:12 | 50.06191 | 1.68520 | 24062 ft | 403 kts | 321° |
| 2026-05-08 14:13 | 50.08345 | 1.65726 | 24058 ft | 403 kts | 319° |
| 2026-05-08 14:13 | 50.10462 | 1.62870 | 24058 ft | 403 kts | 319° |
| 2026-05-08 14:13 | 50.12578 | 1.59994 | 24064 ft | 403 kts | 319° |
| 2026-05-08 14:13 | 50.14689 | 1.57120 | 24060 ft | 403 kts | 319° |
| 2026-05-08 14:14 | 50.16797 | 1.54250 | 24057 ft | 402 kts | 319° |
| 2026-05-08 14:14 | 50.18904 | 1.51379 | 24065 ft | 402 kts | 319° |
| 2026-05-08 14:14 | 50.20985 | 1.48543 | 24065 ft | 402 kts | 319° |
| 2026-05-08 14:14 | 50.23090 | 1.45670 | 24071 ft | 402 kts | 319° |
| 2026-05-08 14:15 | 50.25195 | 1.42795 | 24065 ft | 402 kts | 319° |
| 2026-05-08 14:15 | 50.27296 | 1.39922 | 24067 ft | 402 kts | 319° |
| 2026-05-08 14:15 | 50.29406 | 1.37032 | 24068 ft | 401 kts | 319° |
| 2026-05-08 14:15 | 50.31499 | 1.34164 | 24065 ft | 401 kts | 319° |
| 2026-05-08 14:16 | 50.33591 | 1.31292 | 24063 ft | 400 kts | 319° |
| 2026-05-08 14:16 | 50.35682 | 1.28419 | 24005 ft | 398 kts | 319° |
| 2026-05-08 14:16 | 50.37734 | 1.25595 | 23682 ft | 389 kts | 318° |
| 2026-05-08 14:16 | 50.39773 | 1.22787 | 22906 ft | 390 kts | 318° |
| 2026-05-08 14:17 | 50.41777 | 1.20023 | 22290 ft | 388 kts | 318° |
| 2026-05-08 14:17 | 50.43793 | 1.17239 | 21700 ft | 385 kts | 318° |
| 2026-05-08 14:17 | 50.45793 | 1.14474 | 21125 ft | 382 kts | 318° |
| 2026-05-08 14:17 | 50.47776 | 1.11729 | 20552 ft | 379 kts | 318° |
| 2026-05-08 14:18 | 50.49742 | 1.09006 | 19962 ft | 377 kts | 318° |
| 2026-05-08 14:18 | 50.51669 | 1.06204 | 19343 ft | 376 kts | 314° |
| 2026-05-08 14:18 | 50.53479 | 1.03255 | 18805 ft | 374 kts | 312° |
| 2026-05-08 14:18 | 50.55230 | 1.00312 | 18526 ft | 363 kts | 311° |
| 2026-05-08 14:19 | 50.56903 | 0.97488 | 18305 ft | 352 kts | 311° |
| 2026-05-08 14:19 | 50.58544 | 0.94715 | 18080 ft | 340 kts | 311° |
| 2026-05-08 14:19 | 50.60132 | 0.92030 | 17817 ft | 331 kts | 311° |
| 2026-05-08 14:19 | 50.61690 | 0.89394 | 17428 ft | 326 kts | 311° |
| 2026-05-08 14:20 | 50.63230 | 0.86783 | 16981 ft | 324 kts | 311° |
| 2026-05-08 14:20 | 50.64762 | 0.84186 | 16511 ft | 323 kts | 311° |
| 2026-05-08 14:20 | 50.66286 | 0.81602 | 16047 ft | 321 kts | 311° |
| 2026-05-08 14:20 | 50.67763 | 0.78980 | 15599 ft | 319 kts | 308° |
| 2026-05-08 14:21 | 50.69167 | 0.76287 | 15209 ft | 315 kts | 307° |
| 2026-05-08 14:21 | 50.70538 | 0.73606 | 14779 ft | 313 kts | 307° |
| 2026-05-08 14:21 | 50.71884 | 0.70967 | 14370 ft | 312 kts | 307° |
| 2026-05-08 14:21 | 50.73238 | 0.68310 | 13959 ft | 310 kts | 307° |
| 2026-05-08 14:22 | 50.74585 | 0.65665 | 13522 ft | 308 kts | 307° |
| 2026-05-08 14:22 | 50.75922 | 0.63038 | 13068 ft | 306 kts | 307° |
| 2026-05-08 14:22 | 50.77248 | 0.60432 | 12637 ft | 303 kts | 307° |
| 2026-05-08 14:22 | 50.78560 | 0.57850 | 12247 ft | 300 kts | 307° |
| 2026-05-08 14:23 | 50.79862 | 0.55286 | 12100 ft | 298 kts | 307° |
| 2026-05-08 14:23 | 50.81158 | 0.52731 | 12090 ft | 298 kts | 307° |
| 2026-05-08 14:23 | 50.82454 | 0.50174 | 11990 ft | 297 kts | 307° |
| 2026-05-08 14:23 | 50.83728 | 0.47660 | 11576 ft | 296 kts | 307° |
| 2026-05-08 14:24 | 50.85011 | 0.45125 | 11212 ft | 294 kts | 307° |
| 2026-05-08 14:24 | 50.86281 | 0.42611 | 10817 ft | 291 kts | 307° |
| 2026-05-08 14:24 | 50.87537 | 0.40125 | 10566 ft | 285 kts | 307° |
| 2026-05-08 14:24 | 50.88748 | 0.37728 | 10454 ft | 274 kts | 306° |
| 2026-05-08 14:25 | 50.89916 | 0.35413 | 10339 ft | 264 kts | 306° |
| 2026-05-08 14:25 | 50.91045 | 0.33172 | 10190 ft | 257 kts | 306° |
| 2026-05-08 14:25 | 50.92038 | 0.30857 | 9907 ft | 252 kts | 292° |
| 2026-05-08 14:25 | 50.92591 | 0.28253 | 9570 ft | 248 kts | 282° |
| 2026-05-08 14:26 | 50.93001 | 0.25605 | 9238 ft | 246 kts | 281° |
| 2026-05-08 14:26 | 50.93329 | 0.23386 | 8969 ft | 245 kts | 281° |
| 2026-05-08 14:26 | 50.93716 | 0.20755 | 8630 ft | 244 kts | 281° |
| 2026-05-08 14:26 | 50.94099 | 0.18138 | 8303 ft | 243 kts | 281° |
| 2026-05-08 14:27 | 50.94478 | 0.15537 | 8002 ft | 242 kts | 281° |
| 2026-05-08 14:27 | 50.94852 | 0.12945 | 7698 ft | 241 kts | 281° |
| 2026-05-08 14:27 | 50.95221 | 0.10361 | 7375 ft | 240 kts | 281° |
| 2026-05-08 14:27 | 50.95583 | 0.07786 | 7071 ft | 239 kts | 281° |
| 2026-05-08 14:28 | 50.95942 | 0.05195 | 6631 ft | 243 kts | 281° |
| 2026-05-08 14:28 | 50.96297 | 0.02592 | 6210 ft | 246 kts | 281° |
| 2026-05-08 14:28 | 50.96652 | -0.00056 | 5814 ft | 246 kts | 281° |
| 2026-05-08 14:28 | 50.97006 | -0.02724 | 5409 ft | 247 kts | 281° |
| 2026-05-08 14:29 | 50.97355 | -0.05390 | 5085 ft | 246 kts | 281° |
| 2026-05-08 14:29 | 50.97702 | -0.08045 | 5002 ft | 246 kts | 281° |
| 2026-05-08 14:29 | 50.98052 | -0.10710 | 4996 ft | 247 kts | 281° |
| 2026-05-08 14:29 | 50.98404 | -0.13374 | 4985 ft | 247 kts | 281° |
| 2026-05-08 14:30 | 50.98758 | -0.16037 | 4728 ft | 244 kts | 281° |
| 2026-05-08 14:30 | 50.99106 | -0.18625 | 4426 ft | 237 kts | 281° |
| 2026-05-08 14:30 | 50.99449 | -0.21186 | 3997 ft | 238 kts | 281° |
| 2026-05-08 14:30 | 50.99792 | -0.23758 | 3541 ft | 239 kts | 281° |
| 2026-05-08 14:31 | 51.00133 | -0.26312 | 3164 ft | 240 kts | 281° |
| 2026-05-08 14:31 | 51.00470 | -0.28845 | 2991 ft | 227 kts | 281° |
| 2026-05-08 14:31 | 51.00786 | -0.31235 | 2993 ft | 219 kts | 281° |
| 2026-05-08 14:32 | 51.01438 | -0.35956 | 2990 ft | 219 kts | 281° |
| 2026-05-08 14:32 | 51.01767 | -0.38318 | 2994 ft | 219 kts | 281° |
| 2026-05-08 14:32 | 51.02096 | -0.40683 | 2999 ft | 219 kts | 281° |
| 2026-05-08 14:32 | 51.02674 | -0.42894 | 2987 ft | 217 kts | 308° |
| 2026-05-08 14:33 | 51.03821 | -0.44228 | 2988 ft | 203 kts | 338° |
| 2026-05-08 14:33 | 51.05134 | -0.44959 | 3005 ft | 198 kts | 345° |
| 2026-05-08 14:33 | 51.06450 | -0.45577 | 2994 ft | 197 kts | 346° |
| 2026-05-08 14:33 | 51.07770 | -0.46180 | 2997 ft | 198 kts | 346° |
| 2026-05-08 14:34 | 51.09126 | -0.46492 | 2992 ft | 196 kts | 6° |
| 2026-05-08 14:34 | 51.10462 | -0.46145 | 2992 ft | 194 kts | 22° |
| 2026-05-08 14:34 | 51.11659 | -0.45298 | 2872 ft | 183 kts | 33° |
| 2026-05-08 14:34 | 51.12596 | -0.43998 | 2330 ft | 178 kts | 60° |
| 2026-05-08 14:35 | 51.13039 | -0.42192 | 2030 ft | 175 kts | 81° |
| 2026-05-08 14:35 | 51.12999 | -0.40283 | 1998 ft | 174 kts | 107° |
| 2026-05-08 14:35 | 51.12637 | -0.38488 | 2002 ft | 172 kts | 105° |
| 2026-05-08 14:35 | 51.12461 | -0.36597 | 1990 ft | 175 kts | 92° |
| 2026-05-08 14:36 | 51.12627 | -0.34716 | 1975 ft | 162 kts | 80° |
| 2026-05-08 14:36 | 51.12862 | -0.33105 | 1840 ft | 140 kts | 81° |
| 2026-05-08 14:36 | 51.13061 | -0.31671 | 1660 ft | 127 kts | 81° |
| 2026-05-08 14:36 | 51.13248 | -0.30309 | 1493 ft | 126 kts | 83° |
| 2026-05-08 14:37 | 51.13434 | -0.28954 | 1310 ft | 124 kts | 82° |
| 2026-05-08 14:37 | 51.13622 | -0.27614 | 1148 ft | 124 kts | 81° |
| 2026-05-08 14:37 | 51.13807 | -0.26276 | 950 ft | 124 kts | 80° |
| 2026-05-08 14:37 | 51.14001 | -0.24934 | 748 ft | 124 kts | 79° |
| 2026-05-08 14:38 | 51.14198 | -0.23597 | 599 ft | 124 kts | 78° |
| 2026-05-08 14:38 | 51.14377 | -0.22257 | 459 ft | 124 kts | 79° |
| 2026-05-08 14:38 | 51.14550 | -0.20940 | 297 ft | 123 kts | 79° |
| 2026-05-08 14:38 | 51.14730 | -0.19637 | 219 ft | 114 kts | 78° |
| 2026-05-08 14:39 | 51.14847 | -0.18782 | 213 ft | 37 kts | 74° |
| 2026-05-08 14:39 | 51.14878 | -0.18653 | 215 ft | 15 kts | 62° |
| 2026-05-08 14:39 | 51.14950 | -0.18503 | 208 ft | 18 kts | 53° |
| 2026-05-08 14:39 | 51.15016 | -0.18368 | 214 ft | 0 kts | 52° |
| 2026-05-08 14:40 | 51.15016 | -0.18367 | 214 ft | 0 kts | 52° |
| 2026-05-08 14:40 | 51.15039 | -0.18320 | 211 ft | 8 kts | 52° |
| 2026-05-08 14:40 | 51.15074 | -0.18249 | 213 ft | 9 kts | 49° |
| 2026-05-08 14:41 | 51.15118 | -0.18193 | 214 ft | 8 kts | 22° |
| 2026-05-08 14:41 | 51.15160 | -0.18200 | 208 ft | 2 kts | 348° |
| 2026-05-08 14:42 | 51.15161 | -0.18201 | 208 ft | 0 kts | 348° |
| 2026-05-08 14:42 | 51.15170 | -0.18204 | 208 ft | 3 kts | 348° |
| 2026-05-08 14:42 | 51.15191 | -0.18210 | 215 ft | 3 kts | 347° |
| 2026-05-08 14:42 | 51.15228 | -0.18226 | 208 ft | 7 kts | 346° |
| 2026-05-08 14:43 | 51.15280 | -0.18245 | 208 ft | 8 kts | 347° |
| 2026-05-08 14:43 | 51.15335 | -0.18262 | 212 ft | 8 kts | 349° |
| 2026-05-08 14:43 | 51.15391 | -0.18280 | 216 ft | 8 kts | 348° |
| 2026-05-08 14:43 | 51.15435 | -0.18250 | 208 ft | 7 kts | 49° |
| 2026-05-08 14:44 | 51.15451 | -0.18175 | 215 ft | 8 kts | 82° |
| 2026-05-08 14:44 | 51.15461 | -0.18091 | 212 ft | 8 kts | 78° |
| 2026-05-08 14:44 | 51.15472 | -0.18006 | 212 ft | 8 kts | 78° |
| 2026-05-08 14:44 | 51.15484 | -0.17910 | 209 ft | 9 kts | 78° |
| 2026-05-08 14:45 | 51.15498 | -0.17806 | 208 ft | 10 kts | 78° |
| 2026-05-08 14:45 | 51.15507 | -0.17744 | 216 ft | 5 kts | 77° |
| 2026-05-08 14:45 | 51.15515 | -0.17684 | 213 ft | 6 kts | 77° |
| 2026-05-08 14:45 | 51.15532 | -0.17663 | 214 ft | 2 kts | 358° |
| 2026-05-08 14:46 | 51.15548 | -0.17671 | 213 ft | 3 kts | 341° |
| 2026-05-08 14:46 | 51.15566 | -0.17679 | 208 ft | 3 kts | 346° |
| 2026-05-08 14:46 | 51.15582 | -0.17685 | 218 ft | 0 kts | 347° |